Time;durP1;ratioP1;P1;durP2;ratioP2;P2;SDS_P1;SDS_P2;PMS_P1;PMS_P2;Temp;Humidity;BMP_temperature;BMP_pressure;BME280_temperature;BME280_humidity;BME280_pressure;Samples;Min_cycle;Max_cycle;Signal;HPM_P1;HPM_P2
2021/06/08 00:00:31;;;;;;;1.40;1.30;;;23.30;51.60;;;;;;5034820;28;20458;-58
2021/06/08 00:02:57;;;;;;;1.65;1.50;;;23.20;51.50;;;;;;5034546;28;20414;-58
2021/06/08 00:05:23;;;;;;;1.90;1.60;;;23.20;51.50;;;;;;5050148;28;20748;-58
2021/06/08 00:07:49;;;;;;;2.03;1.58;;;23.20;51.60;;;;;;5034665;28;20417;-58
2021/06/08 00:10:16;;;;;;;1.90;1.70;;;23.20;51.60;;;;;;5034650;28;20395;-59
2021/06/08 00:12:41;;;;;;;1.42;1.30;;;23.20;51.50;;;;;;5034467;28;20395;-58
2021/06/08 00:15:08;;;;;;;1.70;1.45;;;23.20;51.60;;;;;;5034314;28;20752;-58
2021/06/08 00:17:34;;;;;;;2.20;1.52;;;23.20;51.60;;;;;;5034527;28;20878;-58
2021/06/08 00:20:00;;;;;;;1.63;1.50;;;23.20;51.60;;;;;;5034431;28;20465;-59
2021/06/08 00:22:26;;;;;;;2.08;1.65;;;23.20;51.50;;;;;;5034468;28;20397;-58
2021/06/08 00:24:52;;;;;;;1.83;1.30;;;23.20;51.60;;;;;;5048782;28;20411;-58
2021/06/08 00:27:18;;;;;;;1.70;1.40;;;23.20;51.60;;;;;;5033845;28;20379;-59
2021/06/08 00:29:43;;;;;;;1.90;1.70;;;23.20;51.60;;;;;;5034177;28;20402;-58
2021/06/08 00:32:09;;;;;;;1.80;1.50;;;23.10;51.60;;;;;;5034147;28;20394;-58
2021/06/08 00:34:35;;;;;;;1.60;1.50;;;23.10;51.60;;;;;;5033929;28;20398;-59
2021/06/08 00:37:00;;;;;;;1.60;1.40;;;23.10;51.60;;;;;;5034066;28;20839;-58
2021/06/08 00:39:26;;;;;;;1.83;1.57;;;23.10;51.50;;;;;;5033531;28;20411;-59
2021/06/08 00:41:52;;;;;;;1.65;1.45;;;23.10;51.60;;;;;;5034122;28;20387;-58
2021/06/08 00:44:17;;;;;;;1.70;1.40;;;23.10;51.60;;;;;;5033439;28;20419;-58
2021/06/08 00:46:46;;;;;;;1.73;1.55;;;23.10;51.60;;;;;;5033407;28;20402;-58
2021/06/08 00:49:12;;;;;;;1.80;1.60;;;23.10;51.40;;;;;;5033780;28;20379;-58
2021/06/08 00:51:38;;;;;;;1.58;1.40;;;23.10;51.60;;;;;;5033977;28;20387;-58
2021/06/08 00:54:10;;;;;;;2.00;1.70;;;23.10;51.60;;;;;;5032982;28;21116;-58
2021/06/08 00:56:42;;;;;;;1.65;1.48;;;23.10;51.50;;;;;;5033309;28;20762;-58
2021/06/08 00:59:08;;;;;;;1.73;1.63;;;23.10;52.20;;;;;;5033388;28;20415;-58
2021/06/08 01:01:34;;;;;;;1.73;1.40;;;23.10;51.60;;;;;;5033765;28;20382;-58
2021/06/08 01:04:07;;;;;;;1.70;1.60;;;23.10;51.60;;;;;;5033521;28;20391;-58
2021/06/08 01:06:34;;;;;;;2.30;1.60;;;23.10;51.60;;;;;;5033387;28;20398;-58
2021/06/08 01:09:00;;;;;;;1.83;1.50;;;23.00;51.50;;;;;;5033255;28;20403;-58
2021/06/08 01:11:26;;;;;;;1.58;1.45;;;23.00;51.50;;;;;;5033521;28;20384;-58
2021/06/08 01:13:52;;;;;;;2.00;1.60;;;23.00;51.50;;;;;;5033566;28;20453;-58
2021/06/08 01:16:17;;;;;;;1.50;1.30;;;23.00;51.50;;;;;;5033260;28;20449;-59
2021/06/08 01:18:43;;;;;;;1.60;1.50;;;23.00;51.50;;;;;;5033043;28;20510;-58
2021/06/08 01:21:11;;;;;;;1.80;1.60;;;23.00;51.40;;;;;;5032765;28;20395;-58
2021/06/08 01:23:38;;;;;;;1.65;1.48;;;23.00;51.50;;;;;;5032194;28;20399;-58
2021/06/08 01:26:05;;;;;;;2.05;1.50;;;23.00;51.60;;;;;;5033014;28;20387;-58
2021/06/08 01:28:33;;;;;;;1.70;1.60;;;23.00;51.60;;;;;;5033171;28;20379;-58
2021/06/08 01:31:02;;;;;;;1.60;1.50;;;23.00;51.50;;;;;;5032588;28;20395;-58
2021/06/08 01:33:28;;;;;;;1.60;1.40;;;23.00;51.70;;;;;;5033104;28;20871;-58
2021/06/08 01:35:54;;;;;;;1.73;1.60;;;23.00;51.60;;;;;;5033035;28;20399;-58
2021/06/08 01:38:20;;;;;;;1.67;1.58;;;23.00;51.60;;;;;;5032929;28;20429;-58
2021/06/08 01:40:51;;;;;;;1.60;1.50;;;23.00;51.60;;;;;;5032742;28;20399;-58
2021/06/08 01:43:18;;;;;;;1.65;1.40;;;23.00;51.50;;;;;;5032732;28;20794;-58
2021/06/08 01:45:52;;;;;;;1.90;1.55;;;23.00;51.60;;;;;;5032938;28;20398;-58
2021/06/08 01:48:18;;;;;;;2.10;1.50;;;22.90;51.60;;;;;;5032668;28;20756;-58
2021/06/08 01:50:50;;;;;;;1.52;1.30;;;23.00;51.60;;;;;;5032624;28;20391;-58
2021/06/08 01:53:34;;;;;;;1.40;1.30;;;22.90;51.50;;;;;;5031405;28;20426;-59
2021/06/08 01:56:04;;;;;;;1.70;1.50;;;23.00;51.50;;;;;;5032250;28;20399;-58
2021/06/08 01:58:34;;;;;;;1.58;1.40;;;22.90;51.60;;;;;;5032092;28;20741;-58
2021/06/08 02:01:14;;;;;;;1.70;1.45;;;22.90;51.60;;;;;;5032211;28;20895;-58
2021/06/08 02:03:48;;;;;;;1.40;1.23;;;22.90;51.60;;;;;;5032536;28;20486;-58
2021/06/08 02:06:21;;;;;;;1.40;1.30;;;22.90;51.60;;;;;;5032462;28;20898;-59
2021/06/08 02:09:14;;;;;;;1.60;1.38;;;22.90;51.50;;;;;;5032282;28;20399;-59
2021/06/08 02:11:46;;;;;;;1.95;1.50;;;22.90;51.60;;;;;;5032442;28;20380;-58
2021/06/08 02:14:26;;;;;;;1.60;1.40;;;22.90;51.50;;;;;;5032239;28;20398;-59
2021/06/08 02:17:12;;;;;;;1.42;1.33;;;22.90;51.60;;;;;;5031889;28;20736;-58
2021/06/08 02:19:41;;;;;;;1.48;1.35;;;22.90;51.60;;;;;;5032290;28;20419;-58
2021/06/08 02:22:08;;;;;;;1.83;1.20;;;22.90;51.50;;;;;;5032105;28;20859;-58
2021/06/08 02:24:36;;;;;;;1.55;1.40;;;22.90;51.50;;;;;;5030896;28;20403;-58
2021/06/08 02:27:11;;;;;;;1.53;1.33;;;22.90;51.60;;;;;;5031583;28;20397;-59
2021/06/08 02:29:38;;;;;;;1.30;1.20;;;22.80;51.50;;;;;;5032153;28;20387;-58
2021/06/08 02:32:07;;;;;;;1.65;1.30;;;22.90;51.40;;;;;;5031969;28;20751;-59
2021/06/08 02:34:33;;;;;;;1.50;1.30;;;22.80;51.50;;;;;;5032093;28;20403;-58
2021/06/08 02:36:59;;;;;;;1.35;1.20;;;22.80;51.40;;;;;;5031487;28;20413;-58
2021/06/08 02:39:27;;;;;;;1.50;1.30;;;22.80;51.40;;;;;;5031761;28;20981;-58
2021/06/08 02:41:55;;;;;;;1.57;1.40;;;22.80;51.50;;;;;;5031898;28;20433;-58
2021/06/08 02:44:22;;;;;;;1.40;1.30;;;22.80;51.40;;;;;;5031693;28;20422;-58
2021/06/08 02:46:49;;;;;;;1.70;1.40;;;22.80;51.40;;;;;;5031680;28;20391;-58
2021/06/08 02:49:20;;;;;;;1.60;1.30;;;22.80;51.50;;;;;;5031471;28;20406;-58
2021/06/08 02:51:46;;;;;;;1.55;1.20;;;22.80;51.40;;;;;;5031752;28;20786;-58
2021/06/08 02:54:14;;;;;;;1.67;1.50;;;22.80;51.60;;;;;;5031635;28;20391;-59
2021/06/08 02:56:41;;;;;;;1.40;1.30;;;22.80;51.50;;;;;;5047023;28;20419;-58
2021/06/08 02:59:08;;;;;;;1.52;1.30;;;22.80;51.50;;;;;;5031340;28;20976;-58
2021/06/08 03:01:39;;;;;;;1.50;1.40;;;22.80;51.60;;;;;;5030442;28;20437;-58
2021/06/08 03:04:07;;;;;;;1.50;1.40;;;22.80;51.50;;;;;;5031596;28;20379;-58
2021/06/08 03:06:38;;;;;;;1.50;1.40;;;22.80;51.40;;;;;;5031624;28;20395;-58
2021/06/08 03:09:11;;;;;;;2.33;1.35;;;22.80;51.50;;;;;;5030808;28;20922;-58
2021/06/08 03:11:40;;;;;;;2.30;1.30;;;22.80;51.60;;;;;;5031536;28;20402;-58
2021/06/08 03:14:08;;;;;;;4.38;1.63;;;22.80;51.50;;;;;;5031113;28;20391;-58
2021/06/08 03:16:38;;;;;;;2.42;1.40;;;22.80;51.70;;;;;;5031458;28;20744;-58
2021/06/08 03:19:07;;;;;;;5.88;1.58;;;22.80;53.00;;;;;;5030908;28;20450;-58
2021/06/08 03:21:40;;;;;;;3.67;1.40;;;22.80;52.70;;;;;;5031329;28;20391;-58
2021/06/08 03:24:09;;;;;;;2.00;1.40;;;22.80;52.20;;;;;;5031480;28;20405;-58
2021/06/08 03:26:36;;;;;;;3.07;1.70;;;22.80;52.80;;;;;;5031312;28;20485;-58
2021/06/08 03:29:06;;;;;;;3.37;1.40;;;22.80;52.50;;;;;;5030844;28;20390;-59
2021/06/08 03:31:34;;;;;;;3.40;1.48;;;22.80;51.50;;;;;;5031170;28;20390;-59
2021/06/08 03:34:00;;;;;;;3.08;1.80;;;22.80;52.70;;;;;;5030837;28;20756;-58
2021/06/08 03:36:26;;;;;;;4.43;1.80;;;22.70;51.60;;;;;;5031438;28;20385;-59
2021/06/08 03:38:53;;;;;;;3.22;1.73;;;22.70;51.90;;;;;;5030817;28;20429;-59
2021/06/08 03:41:21;;;;;;;4.03;1.50;;;22.70;51.70;;;;;;5031035;28;20402;-59
2021/06/08 03:43:47;;;;;;;2.70;1.80;;;22.70;52.00;;;;;;5031023;28;20456;-59
2021/06/08 03:46:13;;;;;;;2.97;1.52;;;22.70;52.10;;;;;;5030996;28;20500;-58
2021/06/08 03:48:39;;;;;;;3.10;1.60;;;22.70;52.00;;;;;;5031187;28;20777;-58
2021/06/08 03:51:05;;;;;;;6.78;2.05;;;22.70;52.50;;;;;;5030675;28;20391;-59
2021/06/08 03:53:31;;;;;;;3.92;1.58;;;22.70;52.10;;;;;;5030016;28;20430;-58
2021/06/08 03:55:57;;;;;;;5.37;1.70;;;22.70;51.90;;;;;;5031131;28;20887;-59
2021/06/08 03:58:23;;;;;;;3.38;1.70;;;22.70;52.50;;;;;;5030236;28;20406;-58
2021/06/08 04:00:55;;;;;;;4.43;1.73;;;22.70;52.40;;;;;;5030578;28;21003;-60
2021/06/08 04:03:22;;;;;;;6.53;1.77;;;22.70;53.00;;;;;;5031101;28;20391;-59
2021/06/08 04:05:48;;;;;;;5.13;1.88;;;22.70;53.10;;;;;;5045962;28;20399;-58
2021/06/08 04:08:14;;;;;;;4.30;1.60;;;22.70;53.10;;;;;;5029807;28;20390;-58
2021/06/08 04:10:41;;;;;;;4.55;1.80;;;22.70;52.90;;;;;;5020197;28;20404;-59
2021/06/08 04:13:06;;;;;;;5.18;2.17;;;22.70;52.80;;;;;;4998193;28;21001;-59
2021/06/08 04:15:33;;;;;;;4.07;2.00;;;22.70;52.70;;;;;;5002082;28;20499;-58
2021/06/08 04:17:59;;;;;;;4.30;1.80;;;22.70;52.60;;;;;;5003569;28;20435;-59
2021/06/08 04:20:28;;;;;;;4.28;1.90;;;22.70;52.60;;;;;;5003270;28;20900;-59
2021/06/08 04:22:57;;;;;;;6.25;2.03;;;22.70;52.60;;;;;;4997735;28;20387;-58
2021/06/08 04:25:24;;;;;;;5.05;2.08;;;22.70;52.60;;;;;;4994767;28;20398;-60
2021/06/08 04:27:50;;;;;;;5.32;2.25;;;22.70;52.90;;;;;;4994650;28;20833;-58
2021/06/08 04:30:17;;;;;;;4.10;2.13;;;22.60;52.70;;;;;;4996062;28;20403;-58
2021/06/08 04:32:43;;;;;;;6.28;2.47;;;22.60;52.60;;;;;;5015178;28;20892;-59
2021/06/08 04:35:09;;;;;;;5.50;2.65;;;22.70;52.70;;;;;;5015792;28;20421;-59
2021/06/08 04:37:36;;;;;;;3.45;2.22;;;22.60;52.50;;;;;;5033967;28;20403;-59
2021/06/08 04:40:02;;;;;;;5.60;2.40;;;22.60;52.40;;;;;;5033692;28;20446;-58
2021/06/08 04:42:28;;;;;;;4.10;2.45;;;22.60;52.80;;;;;;5032643;28;20388;-59
2021/06/08 04:44:54;;;;;;;4.47;2.40;;;22.60;52.60;;;;;;5033601;28;20473;-59
2021/06/08 04:47:20;;;;;;;5.82;2.42;;;22.60;52.60;;;;;;5033366;28;20392;-59
2021/06/08 04:49:47;;;;;;;5.87;2.90;;;22.70;52.60;;;;;;5033905;28;20391;-66
2021/06/08 04:52:13;;;;;;;3.33;2.65;;;22.60;52.60;;;;;;5033774;28;20390;-59
2021/06/08 04:54:41;;;;;;;3.45;2.80;;;22.60;52.50;;;;;;5033756;28;20408;-59
2021/06/08 04:57:09;;;;;;;4.00;2.60;;;22.60;52.80;;;;;;5033233;28;20402;-59
2021/06/08 04:59:44;;;;;;;3.25;2.33;;;22.60;52.80;;;;;;5033605;28;20775;-60
2021/06/08 05:02:16;;;;;;;4.40;2.40;;;22.60;52.80;;;;;;5032293;28;20391;-58
2021/06/08 05:04:43;;;;;;;7.07;2.60;;;22.60;52.60;;;;;;5033741;28;20399;-59
2021/06/08 05:07:15;;;;;;;5.27;2.20;;;22.60;52.80;;;;;;5033156;28;20399;-59
2021/06/08 05:09:44;;;;;;;4.35;2.03;;;22.60;52.60;;;;;;5032327;28;20401;-59
2021/06/08 05:12:13;;;;;;;2.72;2.05;;;22.60;52.70;;;;;;5033514;28;20474;-59
2021/06/08 05:14:46;;;;;;;3.83;2.00;;;22.60;52.50;;;;;;5033489;28;20387;-59
2021/06/08 05:17:16;;;;;;;2.67;2.00;;;22.70;52.40;;;;;;5032960;28;21030;-59
2021/06/08 05:19:43;;;;;;;2.15;1.92;;;22.60;52.40;;;;;;5033150;28;20423;-63
2021/06/08 05:22:10;;;;;;;3.70;1.90;;;22.60;52.50;;;;;;5033141;28;20743;-59
2021/06/08 05:24:36;;;;;;;2.30;1.90;;;22.60;52.40;;;;;;5033295;28;20417;-59
2021/06/08 05:27:03;;;;;;;1.90;1.70;;;22.60;52.30;;;;;;5032710;28;20414;-61
2021/06/08 05:29:28;;;;;;;2.83;1.90;;;22.70;52.30;;;;;;5033102;28;20449;-59
2021/06/08 05:31:58;;;;;;;3.58;1.80;;;22.70;52.30;;;;;;5032836;28;20395;-59
2021/06/08 05:34:25;;;;;;;2.40;1.80;;;22.60;52.20;;;;;;5033087;28;20411;-65
2021/06/08 05:36:51;;;;;;;2.10;1.88;;;22.60;52.00;;;;;;5032769;28;20391;-61
2021/06/08 05:39:16;;;;;;;2.17;1.92;;;22.70;52.10;;;;;;5032590;28;20425;-59
2021/06/08 05:41:42;;;;;;;2.20;1.90;;;22.70;52.10;;;;;;5032904;28;20445;-59
2021/06/08 05:44:11;;;;;;;2.30;1.80;;;22.70;52.10;;;;;;5032795;28;20413;-59
2021/06/08 05:46:37;;;;;;;2.10;1.70;;;22.70;51.90;;;;;;5032857;28;20390;-59
2021/06/08 05:49:05;;;;;;;2.60;1.73;;;22.70;51.90;;;;;;5030950;28;20399;-59
2021/06/08 05:51:36;;;;;;;2.45;1.88;;;22.70;51.90;;;;;;5032763;28;20387;-59
2021/06/08 05:54:05;;;;;;;1.90;1.70;;;22.70;51.90;;;;;;5032725;28;20411;-61
2021/06/08 05:56:33;;;;;;;2.30;1.80;;;22.70;52.00;;;;;;5032594;28;20383;-59
2021/06/08 05:58:59;;;;;;;2.03;1.80;;;22.70;51.90;;;;;;5029442;28;20420;-64
2021/06/08 06:01:26;;;;;;;2.25;2.00;;;22.70;51.80;;;;;;5025996;28;20386;-59
2021/06/08 06:03:53;;;;;;;2.28;1.90;;;22.80;52.10;;;;;;5030949;28;20880;-59
2021/06/08 06:06:19;;;;;;;2.30;2.10;;;22.70;51.50;;;;;;5031945;28;20391;-59
2021/06/08 06:08:46;;;;;;;3.58;2.28;;;22.80;52.00;;;;;;5032166;28;20713;-59
2021/06/08 06:11:16;;;;;;;2.90;2.60;;;22.80;51.90;;;;;;5031719;28;21265;-59
2021/06/08 06:14:01;;;;;;;3.17;2.45;;;22.80;51.60;;;;;;5032305;28;20395;-59
2021/06/08 06:16:30;;;;;;;3.70;2.50;;;22.80;52.60;;;;;;5032353;28;20394;-59
2021/06/08 06:19:00;;;;;;;4.13;2.30;;;22.80;52.00;;;;;;5031779;28;20899;-59
2021/06/08 06:21:26;;;;;;;4.28;2.40;;;22.80;51.80;;;;;;5031778;28;20383;-59
2021/06/08 06:23:52;;;;;;;3.72;2.10;;;22.80;52.10;;;;;;5032054;28;20875;-59
2021/06/08 06:26:19;;;;;;;3.58;2.25;;;22.80;52.10;;;;;;5032093;28;20386;-61
2021/06/08 06:28:45;;;;;;;3.53;2.20;;;22.90;52.00;;;;;;5032077;28;20383;-60
2021/06/08 06:31:11;;;;;;;3.20;2.23;;;22.90;52.00;;;;;;5031530;28;20401;-59
2021/06/08 06:33:41;;;;;;;4.07;2.30;;;22.90;52.20;;;;;;5031971;28;20855;-59
2021/06/08 06:36:07;;;;;;;3.30;2.28;;;22.80;51.90;;;;;;5031854;28;20467;-60
2021/06/08 06:38:35;;;;;;;3.38;2.30;;;22.90;51.80;;;;;;5031872;28;20417;-60
2021/06/08 06:41:06;;;;;;;2.80;2.13;;;22.90;51.80;;;;;;5031650;28;20394;-59
2021/06/08 06:43:35;;;;;;;2.58;2.10;;;22.90;51.80;;;;;;5031043;28;20411;-59
2021/06/08 06:46:00;;;;;;;3.03;1.90;;;22.90;51.70;;;;;;5031764;28;20394;-59
2021/06/08 06:48:26;;;;;;;3.10;2.15;;;22.90;51.60;;;;;;5047023;28;20760;-62
2021/06/08 06:50:53;;;;;;;2.78;1.80;;;22.90;51.70;;;;;;5031726;28;20395;-59
2021/06/08 06:53:19;;;;;;;2.30;2.10;;;22.90;51.50;;;;;;5031507;28;20417;-59
2021/06/08 06:55:50;;;;;;;2.58;2.00;;;22.90;51.50;;;;;;5031711;28;20594;-59
2021/06/08 06:58:18;;;;;;;3.00;2.33;;;22.90;51.50;;;;;;5031501;28;20884;-60
2021/06/08 07:00:44;;;;;;;2.75;1.90;;;22.90;51.40;;;;;;5031501;28;20879;-59
2021/06/08 07:03:11;;;;;;;2.47;2.15;;;22.90;51.30;;;;;;5031191;28;20394;-59
2021/06/08 07:05:37;;;;;;;3.03;2.10;;;22.90;51.30;;;;;;5031251;28;20402;-59
2021/06/08 07:08:05;;;;;;;2.75;1.90;;;22.90;51.20;;;;;;5031464;28;20417;-60
2021/06/08 07:10:32;;;;;;;3.38;2.33;;;22.90;51.30;;;;;;5031509;28;20478;-59
2021/06/08 07:13:03;;;;;;;2.80;2.10;;;22.90;51.30;;;;;;5031130;28;20416;-59
2021/06/08 07:15:30;;;;;;;2.20;2.00;;;22.90;51.20;;;;;;5031294;28;20392;-60
2021/06/08 07:17:56;;;;;;;2.45;2.00;;;22.90;51.00;;;;;;5031311;28;20399;-59
2021/06/08 07:20:24;;;;;;;2.30;2.00;;;23.00;51.10;;;;;;5031339;28;20457;-60
2021/06/08 07:22:51;;;;;;;2.42;1.98;;;22.90;51.10;;;;;;5031349;28;20391;-60
2021/06/08 07:25:18;;;;;;;2.20;2.00;;;23.00;51.10;;;;;;5030825;28;20457;-61
2021/06/08 07:27:45;;;;;;;2.20;1.90;;;23.00;51.20;;;;;;5031358;28;20391;-61
2021/06/08 07:30:13;;;;;;;2.13;1.90;;;23.00;51.10;;;;;;5029861;28;20395;-59
2021/06/08 07:33:07;;;;;;;2.40;2.00;;;23.00;51.00;;;;;;5031283;28;20396;-60
2021/06/08 07:36:16;;;;;;;2.35;1.77;;;23.00;51.10;;;;;;5030849;28;20894;-59
2021/06/08 07:38:46;;;;;;;2.40;1.88;;;23.00;51.00;;;;;;5008750;28;20434;-62
2021/06/08 07:41:17;;;;;;;2.20;1.95;;;23.00;50.90;;;;;;5027414;28;20434;-59
2021/06/08 07:44:01;;;;;;;2.17;1.83;;;23.00;50.90;;;;;;5031083;28;20510;-59
2021/06/08 07:46:28;;;;;;;2.35;1.77;;;23.00;50.70;;;;;;5031059;28;20398;-61
2021/06/08 07:48:56;;;;;;;2.17;1.90;;;23.00;50.80;;;;;;5031040;28;20438;-60
2021/06/08 07:51:22;;;;;;;2.30;2.10;;;23.00;50.50;;;;;;5030886;28;20395;-60
2021/06/08 07:53:50;;;;;;;2.10;1.85;;;23.00;50.70;;;;;;5031375;28;20823;-59
2021/06/08 07:56:16;;;;;;;3.00;2.00;;;23.00;50.60;;;;;;5034868;28;20875;-61
2021/06/08 07:58:42;;;;;;;2.35;2.08;;;23.00;50.60;;;;;;5034607;28;20442;-60
2021/06/08 08:01:10;;;;;;;2.70;2.20;;;23.00;50.80;;;;;;5034568;28;20395;-59
2021/06/08 08:03:36;;;;;;;2.20;2.00;;;22.90;50.80;;;;;;5034760;28;20397;-59
2021/06/08 08:06:04;;;;;;;2.55;2.05;;;23.00;50.80;;;;;;5034671;28;20466;-60
2021/06/08 08:08:31;;;;;;;2.45;2.00;;;23.00;50.90;;;;;;5034766;28;20383;-61
2021/06/08 08:10:58;;;;;;;2.83;2.20;;;23.00;50.50;;;;;;5034670;28;20402;-60
2021/06/08 08:13:30;;;;;;;2.90;2.20;;;23.00;50.80;;;;;;5034425;28;20469;-59
2021/06/08 08:15:56;;;;;;;5.53;2.70;;;23.00;51.30;;;;;;5034356;28;20403;-61
2021/06/08 08:18:23;;;;;;;5.05;2.90;;;23.00;51.80;;;;;;5034642;28;20814;-59
2021/06/08 08:20:53;;;;;;;5.03;2.53;;;23.10;52.30;;;;;;5025073;28;20834;-59
2021/06/08 08:23:20;;;;;;;7.05;2.75;;;23.00;52.90;;;;;;5007224;28;20384;-59
2021/06/08 08:25:46;;;;;;;6.95;2.97;;;23.10;54.30;;;;;;4993430;28;20481;-60
2021/06/08 08:28:13;;;;;;;9.00;2.97;;;23.10;54.90;;;;;;4999408;28;20458;-59
2021/06/08 08:30:39;;;;;;;7.47;3.28;;;23.20;54.80;;;;;;5008252;28;20531;-62
2021/06/08 08:33:05;;;;;;;6.57;3.13;;;23.10;53.60;;;;;;5014144;28;20476;-60
2021/06/08 08:35:32;;;;;;;5.88;3.10;;;23.10;53.90;;;;;;5014135;28;20396;-60
2021/06/08 08:37:59;;;;;;;6.07;3.20;;;23.10;53.70;;;;;;5014163;28;20401;-62
2021/06/08 08:40:24;;;;;;;6.03;3.28;;;23.10;53.70;;;;;;5014286;28;20874;-61
2021/06/08 08:42:53;;;;;;;6.15;3.33;;;23.10;54.30;;;;;;5013092;28;20404;-62
2021/06/08 08:45:19;;;;;;;5.55;3.35;;;23.20;55.50;;;;;;5013513;28;20423;-62
2021/06/08 08:47:46;;;;;;;5.30;3.08;;;23.20;55.50;;;;;;5014289;28;20940;-65
2021/06/08 08:50:16;;;;;;;3.97;3.33;;;23.20;53.90;;;;;;5014031;28;20507;-63
2021/06/08 08:52:55;;;;;;;5.65;3.40;;;23.20;55.30;;;;;;5014207;28;20472;-59
2021/06/08 08:55:23;;;;;;;5.90;2.80;;;23.20;54.60;;;;;;5012411;28;20777;-60
2021/06/08 08:57:50;;;;;;;4.35;3.17;;;23.20;53.80;;;;;;5013960;28;20396;-60
2021/06/08 09:00:16;;;;;;;6.93;3.30;;;23.20;53.90;;;;;;5013909;28;20400;-62
2021/06/08 09:02:43;;;;;;;4.90;2.75;;;23.20;55.00;;;;;;5012601;28;20877;-60
2021/06/08 09:05:10;;;;;;;5.10;2.90;;;23.20;53.70;;;;;;5013450;28;20781;-59
2021/06/08 09:07:36;;;;;;;4.82;2.80;;;23.20;54.10;;;;;;5012562;28;20384;-61
2021/06/08 09:10:03;;;;;;;5.25;3.03;;;23.20;54.20;;;;;;5013488;28;20401;-60
2021/06/08 09:12:29;;;;;;;7.45;3.10;;;23.30;54.50;;;;;;5013908;28;20389;-60
2021/06/08 09:14:54;;;;;;;7.00;3.30;;;23.30;54.80;;;;;;5013667;28;20480;-63
2021/06/08 09:17:21;;;;;;;4.85;3.03;;;23.30;54.60;;;;;;5013210;28;20424;-64
2021/06/08 09:19:47;;;;;;;3.30;2.83;;;23.30;53.80;;;;;;5013356;28;20431;-64
2021/06/08 09:22:14;;;;;;;4.28;2.85;;;23.30;53.40;;;;;;5012232;28;20514;-64
2021/06/08 09:24:43;;;;;;;3.65;2.78;;;23.30;53.70;;;;;;5013657;28;20388;-64
2021/06/08 09:27:09;;;;;;;3.77;2.73;;;23.30;54.30;;;;;;5012840;28;20425;-65
2021/06/08 09:29:37;;;;;;;4.15;2.50;;;23.30;53.80;;;;;;5013171;28;20737;-63
2021/06/08 09:32:19;;;;;;;4.45;2.58;;;23.40;53.70;;;;;;5013235;28;20389;-63
2021/06/08 09:34:51;;;;;;;6.50;2.70;;;23.40;53.50;;;;;;5013384;28;20479;-64
2021/06/08 09:37:33;;;;;;;4.93;2.60;;;23.40;53.30;;;;;;5012739;28;20395;-62
2021/06/08 09:39:59;;;;;;;3.47;2.60;;;23.40;53.20;;;;;;5013128;28;20490;-60
2021/06/08 09:42:27;;;;;;;3.67;2.50;;;23.40;53.00;;;;;;5013220;28;20888;-63
2021/06/08 09:44:53;;;;;;;4.95;2.53;;;23.40;52.90;;;;;;5012931;28;20444;-65
2021/06/08 09:47:26;;;;;;;2.75;2.30;;;23.40;52.40;;;;;;5012593;28;20723;-64
2021/06/08 09:49:52;;;;;;;3.05;2.30;;;23.30;52.10;;;;;;5012978;28;20590;-63
2021/06/08 09:52:20;;;;;;;3.55;2.20;;;23.30;51.80;;;;;;5012991;28;20384;-62
2021/06/08 09:54:51;;;;;;;4.83;2.67;;;23.30;51.60;;;;;;5013012;28;20400;-63
2021/06/08 09:57:26;;;;;;;3.95;2.25;;;23.20;52.00;;;;;;5012288;28;20397;-61
2021/06/08 09:59:56;;;;;;;3.65;2.25;;;23.30;51.90;;;;;;5012434;28;20419;-63
2021/06/08 10:02:23;;;;;;;4.50;2.42;;;23.30;51.90;;;;;;5012578;28;20396;-65
2021/06/08 10:04:48;;;;;;;3.72;2.55;;;23.30;52.30;;;;;;5012575;28;20389;-64
2021/06/08 10:07:40;;;;;;;4.17;2.20;;;23.30;51.60;;;;;;5012310;28;20684;-64
2021/06/08 10:10:14;;;;;;;3.28;2.55;;;23.30;52.00;;;;;;5007980;28;20841;-65
2021/06/08 10:13:18;;;;;;;3.92;2.45;;;23.30;51.50;;;;;;5012260;28;20396;-61
2021/06/08 10:15:55;;;;;;;3.13;2.20;;;23.30;51.70;;;;;;4991309;28;20510;-63
2021/06/08 10:18:21;;;;;;;4.82;2.40;;;23.30;51.90;;;;;;5011389;28;20404;-65
2021/06/08 10:20:51;;;;;;;4.72;2.30;;;23.30;51.70;;;;;;5012117;28;20413;-64
2021/06/08 10:23:20;;;;;;;4.97;2.60;;;23.30;51.80;;;;;;5010978;28;20876;-60
2021/06/08 10:25:46;;;;;;;4.68;2.50;;;23.30;51.80;;;;;;5011428;28;20389;-65
2021/06/08 10:28:13;;;;;;;6.75;2.55;;;23.30;51.60;;;;;;5012038;28;20439;-65
2021/06/08 10:30:41;;;;;;;4.15;2.30;;;23.20;51.50;;;;;;5012044;28;20384;-65
2021/06/08 10:33:07;;;;;;;4.38;2.20;;;23.30;51.50;;;;;;5011851;28;20389;-61
2021/06/08 10:35:36;;;;;;;4.00;2.22;;;23.20;51.40;;;;;;5010720;28;20432;-61
2021/06/08 10:38:09;;;;;;;3.83;2.40;;;23.30;51.40;;;;;;5010808;28;20392;-60
2021/06/08 10:40:38;;;;;;;2.70;2.20;;;23.30;51.30;;;;;;5010864;28;20479;-62
2021/06/08 10:43:04;;;;;;;3.30;2.28;;;23.20;51.20;;;;;;5012005;28;20861;-63
2021/06/08 10:45:35;;;;;;;4.00;2.20;;;23.20;51.20;;;;;;5010329;28;20520;-64
2021/06/08 10:48:21;;;;;;;2.50;2.20;;;23.30;51.20;;;;;;5012065;28;20385;-64
2021/06/08 10:50:49;;;;;;;2.50;2.10;;;23.30;51.20;;;;;;5010779;28;20389;-63
2021/06/08 10:53:27;;;;;;;2.53;2.17;;;23.30;51.00;;;;;;5011719;28;20393;-64
2021/06/08 10:55:53;;;;;;;4.22;2.22;;;23.30;51.10;;;;;;5010640;28;20388;-64
2021/06/08 10:58:53;;;;;;;2.47;2.10;;;23.30;51.00;;;;;;5010484;28;20411;-64
2021/06/08 11:01:31;;;;;;;3.97;2.40;;;23.30;51.00;;;;;;5011660;28;20428;-60
2021/06/08 11:03:59;;;;;;;4.40;2.10;;;23.20;50.90;;;;;;5011846;28;20396;-62
2021/06/08 11:06:45;;;;;;;2.63;2.10;;;23.30;51.00;;;;;;5011916;28;20377;-65
2021/06/08 11:09:13;;;;;;;2.47;2.10;;;23.20;50.90;;;;;;5011533;28;20390;-64
2021/06/08 11:12:00;;;;;;;3.40;2.20;;;23.20;51.00;;;;;;5011630;28;20435;-64
2021/06/08 11:14:32;;;;;;;2.78;2.08;;;23.30;51.00;;;;;;5010504;28;20399;-63
2021/06/08 11:16:59;;;;;;;2.72;2.35;;;23.30;50.90;;;;;;5011714;28;20893;-64
2021/06/08 11:19:59;;;;;;;2.50;2.20;;;23.30;50.90;;;;;;5011145;28;20424;-63
2021/06/08 11:22:33;;;;;;;2.35;2.15;;;23.30;50.90;;;;;;5011393;28;20876;-65
2021/06/08 11:25:01;;;;;;;3.45;2.28;;;23.20;50.90;;;;;;5011459;28;20428;-64
2021/06/08 11:27:54;;;;;;;2.42;2.17;;;23.30;50.90;;;;;;5009570;28;20405;-65
2021/06/08 11:30:48;;;;;;;2.60;2.10;;;23.30;50.80;;;;;;4999116;28;20395;-65
2021/06/08 11:33:35;;;;;;;2.58;2.38;;;23.30;50.80;;;;;;5007937;28;20412;-64
2021/06/08 11:36:22;;;;;;;2.33;2.10;;;23.30;50.80;;;;;;5015508;28;20397;-65
2021/06/08 11:38:53;;;;;;;2.70;2.20;;;23.30;50.70;;;;;;5015302;28;20495;-65
2021/06/08 11:41:20;;;;;;;2.47;2.20;;;23.30;50.70;;;;;;5015314;28;20389;-64
2021/06/08 11:43:51;;;;;;;2.30;2.10;;;23.30;50.70;;;;;;5015022;28;20431;-65
2021/06/08 11:46:27;;;;;;;2.87;2.50;;;23.30;50.70;;;;;;5015391;28;20389;-63
2021/06/08 11:49:09;;;;;;;2.38;2.17;;;23.30;50.60;;;;;;5015276;28;20404;-63
2021/06/08 11:51:39;;;;;;;2.50;2.30;;;23.30;50.50;;;;;;5014409;28;20968;-61
2021/06/08 11:54:16;;;;;;;2.55;2.20;;;23.30;50.50;;;;;;5013344;28;20765;-60
2021/06/08 11:56:55;;;;;;;2.47;2.28;;;23.30;50.50;;;;;;5015304;28;20409;-64
2021/06/08 11:59:23;;;;;;;2.40;2.20;;;23.30;50.50;;;;;;5013503;28;20416;-65
2021/06/08 12:01:58;;;;;;;2.40;2.20;;;23.30;50.50;;;;;;5015021;28;20385;-63
2021/06/08 12:04:29;;;;;;;2.85;2.28;;;23.30;50.50;;;;;;5014095;28;20866;-65
2021/06/08 12:06:54;;;;;;;2.50;2.30;;;23.30;50.50;;;;;;5014850;28;20469;-65
2021/06/08 12:09:21;;;;;;;2.55;2.35;;;23.30;50.50;;;;;;5014779;28;20476;-63
2021/06/08 12:11:48;;;;;;;2.75;2.30;;;23.30;50.40;;;;;;5014718;28;20459;-66
2021/06/08 12:14:14;;;;;;;2.70;2.28;;;23.40;50.50;;;;;;5013531;28;20448;-65
2021/06/08 12:16:40;;;;;;;2.73;2.40;;;23.30;50.40;;;;;;5014862;28;20389;-66
2021/06/08 12:19:09;;;;;;;2.53;2.03;;;23.40;50.60;;;;;;5012986;28;20793;-65
2021/06/08 12:21:35;;;;;;;2.50;2.25;;;23.40;50.50;;;;;;5013006;28;20881;-65
2021/06/08 12:24:00;;;;;;;2.55;2.13;;;23.30;50.30;;;;;;5014622;28;20408;-65
2021/06/08 12:26:27;;;;;;;2.90;2.30;;;23.40;50.40;;;;;;5013486;28;20385;-64
2021/06/08 12:29:08;;;;;;;2.33;2.10;;;23.40;50.40;;;;;;5014484;28;20906;-65
2021/06/08 12:31:35;;;;;;;2.40;2.00;;;23.40;50.40;;;;;;5014150;28;20946;-64
2021/06/08 12:34:14;;;;;;;2.58;2.10;;;23.40;50.40;;;;;;5014444;28;20889;-66
2021/06/08 12:36:44;;;;;;;2.30;2.00;;;23.40;50.30;;;;;;5013253;28;20405;-63
2021/06/08 12:39:18;;;;;;;2.45;2.25;;;23.40;50.90;;;;;;5014280;28;20422;-60
2021/06/08 12:41:45;;;;;;;2.30;2.10;;;23.40;50.40;;;;;;5011932;28;20955;-61
2021/06/08 12:44:11;;;;;;;3.03;2.28;;;23.40;50.30;;;;;;5014114;28;20412;-65
2021/06/08 12:46:39;;;;;;;2.40;2.20;;;23.40;50.20;;;;;;5014269;28;20749;-64
2021/06/08 12:49:11;;;;;;;2.75;2.15;;;23.40;50.30;;;;;;5013979;28;20396;-64
2021/06/08 12:51:38;;;;;;;2.22;1.90;;;23.40;50.30;;;;;;5013705;28;20403;-62
2021/06/08 12:54:05;;;;;;;2.72;2.30;;;23.40;50.40;;;;;;5012778;28;20864;-62
2021/06/08 12:56:32;;;;;;;2.55;2.20;;;23.40;50.30;;;;;;5014139;28;20389;-65
2021/06/08 12:58:58;;;;;;;2.50;2.00;;;23.40;50.30;;;;;;5013870;28;20471;-66